createdAt,value
2018-04-07T00:01:17.950Z,52.50
2018-04-07T00:03:44.985Z,52.50
2018-04-07T00:06:12.128Z,52.50
2018-04-07T00:08:39.177Z,52.50
2018-04-07T00:11:06.192Z,52.50
2018-04-07T00:13:33.231Z,52.50
2018-04-07T00:16:00.374Z,52.50
2018-04-07T00:18:27.431Z,52.50
2018-04-07T00:20:54.490Z,52.60
2018-04-07T00:23:21.543Z,52.60
2018-04-07T00:25:48.961Z,52.50
2018-04-07T00:28:16.146Z,52.60
2018-04-07T00:47:24.210Z,52.50
2018-04-07T00:49:51.301Z,52.50
2018-04-07T00:52:18.333Z,52.50
2018-04-07T00:54:45.372Z,52.60
2018-04-07T00:57:12.532Z,52.50
2018-04-07T00:59:39.574Z,52.50
2018-04-07T01:18:52.301Z,52.40
2018-04-07T01:21:19.386Z,52.50
2018-04-07T01:23:46.451Z,52.40
2018-04-07T01:26:13.753Z,52.40
2018-04-07T01:28:41.166Z,52.40
2018-04-07T01:47:52.715Z,52.60
2018-04-07T01:50:19.842Z,52.70
2018-04-07T01:52:47.103Z,52.60
2018-04-07T01:55:14.216Z,52.70
2018-04-07T01:57:41.316Z,52.70
2018-04-07T02:00:09.806Z,52.70
2018-04-07T02:02:36.916Z,52.70
2018-04-07T02:05:03.925Z,52.70
2018-04-07T02:07:30.960Z,52.70
2018-04-07T02:09:57.993Z,52.40
2018-04-07T02:29:11.504Z,52.60
2018-04-07T02:31:38.536Z,52.60
2018-04-07T02:34:05.597Z,52.60
2018-04-07T02:36:32.802Z,52.50
2018-04-07T02:38:59.845Z,52.40
2018-04-07T02:41:26.894Z,53.10
2018-04-07T02:43:53.964Z,52.30
2018-04-07T02:46:21.009Z,52.40
2018-04-07T02:48:48.053Z,52.50
2018-04-07T02:51:15.119Z,52.40
2018-04-07T02:53:42.301Z,52.50
2018-04-07T02:56:09.974Z,52.40
2018-04-07T02:58:37.018Z,52.30
2018-04-07T03:01:04.048Z,52.30
2018-04-07T03:03:31.117Z,52.10
2018-04-07T03:05:58.219Z,51.80
2018-04-07T03:08:25.260Z,51.50
2018-04-07T03:10:52.329Z,52.00
2018-04-07T03:13:19.366Z,51.80
2018-04-07T03:15:46.425Z,51.70
2018-04-07T03:18:13.472Z,51.90
2018-04-07T03:20:40.523Z,51.10
2018-04-07T03:23:07.562Z,50.80
2018-04-07T03:25:34.670Z,50.90
2018-04-07T03:28:01.842Z,50.70
2018-04-07T03:30:29.150Z,50.30
2018-04-07T03:32:56.355Z,50.20
2018-04-07T03:35:23.635Z,50.20
2018-04-07T03:37:50.675Z,50.00
2018-04-07T03:40:17.709Z,50.70
2018-04-07T03:42:44.737Z,51.20
2018-04-07T03:45:11.799Z,49.90
2018-04-07T03:47:38.855Z,50.20
2018-04-07T03:50:05.913Z,50.70
2018-04-07T03:52:33.081Z,50.30
2018-04-07T03:55:00.148Z,49.30
2018-04-07T03:57:27.232Z,49.90
2018-04-07T03:59:55.265Z,49.60
2018-04-07T04:02:22.379Z,49.10
2018-04-07T04:04:49.519Z,49.40
2018-04-07T04:07:16.561Z,49.00
2018-04-07T04:09:43.664Z,49.50
2018-04-07T04:12:10.724Z,48.60
2018-04-07T04:14:37.878Z,49.20
2018-04-07T04:17:04.935Z,49.30
2018-04-07T04:19:32.079Z,48.60
2018-04-07T04:21:59.175Z,48.90
2018-04-07T04:24:26.225Z,48.20
2018-04-07T04:26:53.651Z,49.10
2018-04-07T04:29:20.698Z,48.70
2018-04-07T04:31:47.756Z,48.80
2018-04-07T04:34:14.836Z,48.30
2018-04-07T04:36:41.982Z,48.50
2018-04-07T04:39:09.034Z,49.70
2018-04-07T04:58:19.473Z,48.30
2018-04-07T05:00:46.540Z,48.90
2018-04-07T05:03:13.709Z,48.50
2018-04-07T05:05:41.792Z,48.90
2018-04-07T05:38:47.067Z,48.60
2018-04-07T05:41:14.124Z,48.50
2018-04-07T05:43:41.225Z,49.20
2018-04-07T05:46:08.244Z,49.20
2018-04-07T05:48:35.499Z,49.50
2018-04-07T05:51:02.588Z,48.50
2018-04-07T05:53:29.653Z,48.70
2018-04-07T05:55:56.724Z,48.80
2018-04-07T05:58:24.106Z,48.40
2018-04-07T06:00:51.305Z,48.10
2018-04-07T06:03:18.404Z,48.10
2018-04-07T06:22:31.369Z,48.80
2018-04-07T06:24:58.393Z,49.00
2018-04-07T06:27:25.624Z,48.90
2018-04-07T06:29:52.673Z,49.00
2018-04-07T06:32:19.812Z,48.80
2018-04-07T06:34:47.967Z,49.10
2018-04-07T06:37:15.038Z,49.10
2018-04-07T06:39:42.089Z,49.00
2018-04-07T06:42:09.214Z,49.70
2018-04-07T06:44:36.382Z,49.00
2018-04-07T06:47:03.397Z,47.90
2018-04-07T06:49:30.444Z,47.00
2018-04-07T06:51:57.487Z,48.20
2018-04-07T06:54:24.615Z,48.90
2018-04-07T06:56:51.680Z,49.00
2018-04-07T06:59:18.748Z,48.80
2018-04-07T07:01:45.839Z,49.00
2018-04-07T07:04:12.930Z,48.70
2018-04-07T07:06:40.021Z,48.60
2018-04-07T07:09:07.029Z,48.50
2018-04-07T07:11:34.125Z,48.50
2018-04-07T07:36:06.812Z,48.30
2018-04-07T07:38:34.867Z,48.70
2018-04-07T07:41:02.440Z,48.60
2018-04-07T07:43:29.532Z,48.60
2018-04-07T07:45:56.585Z,48.60
2018-04-07T07:48:23.622Z,48.60
2018-04-07T08:07:37.014Z,48.80
2018-04-07T08:10:04.841Z,49.00
2018-04-07T08:29:15.798Z,48.90
2018-04-07T08:31:42.831Z,49.00
2018-04-07T08:34:09.851Z,49.00
2018-04-07T09:01:30.109Z,51.80
2018-04-07T09:14:59.782Z,51.80
2018-04-07T09:45:03.399Z,50.30
2018-04-07T09:47:30.452Z,50.00
2018-04-07T09:49:57.512Z,50.10
2018-04-07T09:52:24.610Z,50.40
2018-04-07T09:54:51.657Z,50.20
2018-04-07T10:14:02.908Z,50.30
2018-04-07T10:16:30.021Z,50.80
2018-04-07T10:18:57.075Z,50.60
2018-04-07T10:21:24.132Z,50.60
2018-04-07T10:23:51.846Z,50.50
2018-04-07T10:26:18.899Z,50.50
2018-04-07T10:28:45.954Z,50.40
2018-04-07T10:31:13.020Z,50.70
2018-04-07T10:33:40.040Z,51.90
2018-04-07T10:52:46.507Z,50.50
2018-04-07T10:55:13.512Z,50.60
2018-04-07T10:57:40.521Z,50.40
2018-04-07T11:16:44.557Z,50.60
2018-04-07T11:19:11.666Z,50.70
2018-04-07T11:21:38.792Z,47.70
2018-04-07T11:24:05.804Z,45.60
2018-04-07T11:29:20.005Z,42.20
2018-04-07T11:31:47.022Z,40.30
2018-04-07T11:34:14.814Z,40.60
2018-04-07T11:39:28.096Z,39.20
2018-04-07T11:47:36.505Z,37.80
2018-04-07T11:50:03.589Z,36.30
2018-04-07T11:52:30.598Z,36.00
2018-04-07T11:54:57.688Z,36.30
2018-04-07T11:57:24.729Z,36.20
2018-04-07T12:08:09.052Z,34.60
2018-04-07T12:10:36.066Z,34.60
2018-04-07T12:13:03.113Z,34.70
2018-04-07T12:15:30.144Z,34.70
2018-04-07T12:17:57.255Z,33.70
2018-04-07T12:20:24.318Z,33.50
2018-04-07T12:22:51.487Z,33.60
2018-04-07T12:25:18.507Z,32.70
2018-04-07T12:27:46.292Z,32.60
2018-04-07T12:52:20.799Z,31.70
2018-04-07T13:05:52.258Z,30.20
2018-04-07T13:08:19.263Z,30.60
2018-04-07T13:10:46.279Z,30.10
2018-04-07T13:13:13.372Z,29.60
2018-04-07T13:15:42.270Z,29.90
2018-04-07T13:40:16.852Z,30.60
2018-04-07T13:42:43.891Z,30.20
2018-04-07T13:45:10.943Z,30.00
2018-04-07T14:01:37.473Z,30.60
2018-04-07T14:04:05.298Z,29.80
2018-04-07T14:23:09.259Z,29.90
2018-04-07T14:25:37.908Z,30.10
2018-04-07T14:44:50.591Z,33.90
2018-04-07T15:06:37.990Z,39.30
2018-04-07T15:25:47.393Z,41.50
2018-04-07T15:28:14.436Z,41.70
2018-04-07T15:30:41.546Z,42.00
2018-04-07T15:33:08.638Z,42.00
2018-04-07T15:35:35.674Z,42.10
2018-04-07T15:38:02.719Z,42.50
2018-04-07T15:40:29.789Z,42.70
2018-04-07T15:56:47.905Z,43.70
2018-04-07T16:10:19.890Z,44.20
2018-04-07T16:29:22.174Z,44.80
2018-04-07T16:53:56.503Z,45.30
2018-04-07T17:13:06.459Z,45.70
2018-04-07T17:15:33.511Z,45.80
2018-04-07T17:18:00.554Z,45.10
2018-04-07T17:31:30.965Z,45.90
2018-04-07T17:33:58.008Z,46.00
2018-04-07T17:36:25.182Z,45.90
2018-04-07T17:47:26.492Z,43.20
2018-04-07T18:06:29.881Z,45.00
2018-04-07T18:25:39.850Z,46.20
2018-04-07T18:44:48.446Z,46.70
2018-04-07T18:47:15.826Z,46.90
2018-04-07T19:06:24.686Z,47.10
2018-04-07T19:08:52.757Z,47.10
2018-04-07T19:11:20.018Z,47.20
2018-04-07T19:13:47.033Z,47.20
2018-04-07T19:32:55.175Z,47.50
2018-04-07T19:35:22.277Z,47.50
2018-04-07T19:54:33.676Z,47.80
2018-04-07T19:57:00.782Z,47.80
2018-04-07T19:59:27.844Z,47.80
2018-04-07T20:18:36.864Z,48.00
2018-04-07T20:37:45.193Z,48.20
2018-04-07T20:40:12.322Z,48.20
2018-04-07T20:42:39.413Z,48.20
2018-04-07T21:01:48.705Z,48.40
2018-04-07T21:04:15.744Z,48.50
2018-04-07T21:06:42.828Z,48.50
2018-04-07T21:25:52.617Z,48.60
2018-04-07T21:28:19.804Z,48.70
2018-04-07T21:30:46.869Z,48.70
2018-04-07T21:33:14.338Z,48.70
2018-04-07T21:35:41.408Z,48.70
2018-04-07T21:38:08.480Z,48.80
2018-04-07T21:40:35.517Z,48.80
2018-04-07T21:43:02.632Z,48.80
2018-04-07T21:45:29.674Z,48.80
2018-04-07T21:47:56.744Z,48.80
2018-04-07T21:50:23.818Z,49.50
2018-04-07T21:52:50.903Z,48.90
2018-04-07T21:55:17.975Z,48.90
2018-04-07T21:57:44.993Z,49.00
2018-04-07T22:00:12.518Z,48.90
2018-04-07T22:02:39.552Z,48.90
2018-04-07T22:05:06.618Z,49.00
2018-04-07T22:07:34.416Z,49.10
2018-04-07T22:10:01.508Z,49.00
2018-04-07T22:12:28.528Z,49.00
2018-04-07T22:14:55.663Z,49.10
2018-04-07T22:17:22.752Z,49.10
2018-04-07T22:19:49.816Z,49.20
2018-04-07T22:22:16.871Z,49.20
2018-04-07T22:24:43.925Z,49.20
2018-04-07T22:27:11.074Z,49.20
2018-04-07T22:29:38.220Z,49.20
2018-04-07T22:32:05.272Z,49.20
2018-04-07T22:34:32.356Z,49.20
2018-04-07T22:36:59.718Z,49.20
2018-04-07T22:58:48.071Z,49.20
2018-04-07T23:01:16.768Z,49.40
2018-04-07T23:20:22.818Z,49.50
2018-04-07T23:22:49.911Z,49.50
2018-04-07T23:25:17.255Z,49.50
2018-04-07T23:27:44.611Z,49.40
2018-04-07T23:30:11.641Z,49.50
2018-04-07T23:32:38.714Z,49.60
2018-04-07T23:35:05.826Z,49.60
2018-04-07T23:37:32.882Z,49.70
2018-04-07T23:39:59.971Z,49.60
2018-04-07T23:42:27.037Z,49.70
